Time;durP1;ratioP1;P1;durP2;ratioP2;P2;SDS_P1;SDS_P2;PMS_P1;PMS_P2;Temp;Humidity;BMP_temperature;BMP_pressure;BME280_temperature;BME280_humidity;BME280_pressure;Samples;Min_cycle;Max_cycle;Signal;HPM_P1;HPM_P2
2021/03/15 00:01:06;;;;;;;14.18;3.22;;;4.20;99.90;;;;;;4972393;28;20050;-74
2021/03/15 00:03:31;;;;;;;10.07;3.22;;;4.20;99.90;;;;;;4968734;28;20041;-74
2021/03/15 00:05:58;;;;;;;8.93;2.85;;;4.20;99.90;;;;;;4968337;28;20175;-76
2021/03/15 00:08:24;;;;;;;8.50;3.05;;;4.20;99.90;;;;;;4968383;28;20326;-74
2021/03/15 00:10:49;;;;;;;9.80;3.13;;;4.20;99.90;;;;;;4968442;28;20038;-74
2021/03/15 00:13:15;;;;;;;8.48;2.83;;;4.20;99.90;;;;;;4968959;28;20043;-74
2021/03/15 00:15:42;;;;;;;8.68;3.05;;;4.10;99.90;;;;;;4968356;28;20038;-74
2021/03/15 00:18:08;;;;;;;6.32;2.92;;;4.10;99.90;;;;;;4975859;28;20512;-73
2021/03/15 00:20:34;;;;;;;9.75;2.70;;;4.10;99.90;;;;;;4967211;28;20038;-75
2021/03/15 00:22:59;;;;;;;7.25;3.53;;;4.00;99.90;;;;;;4969056;28;20107;-75
2021/03/15 00:25:25;;;;;;;6.28;3.25;;;3.90;99.90;;;;;;4967841;28;20039;-75
2021/03/15 00:27:51;;;;;;;15.02;3.13;;;3.90;99.90;;;;;;4968716;28;20034;-75
2021/03/15 00:30:18;;;;;;;7.03;3.15;;;3.90;99.90;;;;;;4976444;28;20615;-75
2021/03/15 00:32:45;;;;;;;10.85;2.92;;;3.90;99.90;;;;;;4966826;28;20053;-75
2021/03/15 00:35:13;;;;;;;5.95;2.88;;;3.90;99.90;;;;;;4967419;28;20038;-74
2021/03/15 00:37:40;;;;;;;6.43;3.17;;;3.80;99.90;;;;;;4966813;28;20491;-75
2021/03/15 00:40:08;;;;;;;11.38;3.10;;;3.70;99.90;;;;;;4968078;28;20054;-75
2021/03/15 00:42:34;;;;;;;13.77;3.60;;;3.70;99.90;;;;;;4968407;28;20047;-75
2021/03/15 00:45:00;;;;;;;12.27;3.50;;;3.70;99.90;;;;;;4966416;28;20034;-75
2021/03/15 00:47:26;;;;;;;6.82;2.67;;;3.70;99.90;;;;;;4974138;28;20030;-75
2021/03/15 00:49:52;;;;;;;11.15;3.05;;;3.70;99.90;;;;;;4965601;28;20050;-75
2021/03/15 00:52:18;;;;;;;8.60;3.20;;;3.60;99.90;;;;;;4966326;28;20492;-75
2021/03/15 00:54:43;;;;;;;7.30;2.42;;;3.60;99.90;;;;;;4971314;28;20093;-75
2021/03/15 00:57:09;;;;;;;9.55;2.85;;;3.60;99.90;;;;;;4978000;28;20085;-75
2021/03/15 00:59:34;;;;;;;7.70;3.35;;;3.50;99.90;;;;;;4975427;28;20298;-74
2021/03/15 01:02:00;;;;;;;7.07;3.10;;;3.50;99.90;;;;;;4976378;28;20436;-73
2021/03/15 01:04:26;;;;;;;11.18;3.22;;;3.60;99.90;;;;;;4975847;28;20125;-74
2021/03/15 01:06:51;;;;;;;9.93;3.22;;;3.70;99.90;;;;;;4972767;28;20030;-73
2021/03/15 01:09:17;;;;;;;7.78;2.72;;;3.70;99.90;;;;;;4976706;28;20050;-73
2021/03/15 01:11:43;;;;;;;8.52;2.80;;;3.60;99.90;;;;;;4974393;28;20030;-74
2021/03/15 01:14:09;;;;;;;10.20;2.92;;;3.60;99.90;;;;;;4975045;28;22621;-75
2021/03/15 01:16:35;;;;;;;9.57;3.17;;;3.60;99.90;;;;;;4975038;28;20038;-75
2021/03/15 01:19:01;;;;;;;8.75;3.30;;;3.60;99.90;;;;;;4975943;28;20053;-75
2021/03/15 01:21:27;;;;;;;9.35;2.90;;;3.60;99.90;;;;;;4973897;28;20411;-75
2021/03/15 01:23:53;;;;;;;5.70;2.80;;;3.50;99.90;;;;;;4975428;28;20030;-75
2021/03/15 01:26:19;;;;;;;7.25;3.28;;;3.40;99.90;;;;;;4975158;28;20031;-75
2021/03/15 01:28:45;;;;;;;8.80;3.13;;;3.40;99.90;;;;;;4974535;28;20070;-76
2021/03/15 01:31:11;;;;;;;5.15;2.78;;;3.40;99.90;;;;;;4974410;28;20042;-75
2021/03/15 01:33:37;;;;;;;7.40;3.47;;;3.40;99.90;;;;;;4977065;28;20522;-75
2021/03/15 01:36:03;;;;;;;8.88;3.17;;;3.40;99.90;;;;;;4976604;28;20030;-75
2021/03/15 01:38:34;;;;;;;10.60;3.50;;;3.30;99.90;;;;;;5001688;23;20042;-78
2021/03/15 01:41:00;;;;;;;7.18;3.00;;;3.20;99.90;;;;;;4985350;28;20034;-77
2021/03/15 01:43:26;;;;;;;4.07;2.28;;;3.10;99.90;;;;;;4982913;28;20062;-77
2021/03/15 01:45:52;;;;;;;9.60;4.03;;;3.00;99.90;;;;;;4981465;28;20615;-76
2021/03/15 01:48:20;;;;;;;7.63;2.65;;;2.90;99.90;;;;;;4988057;28;20046;-78
2021/03/15 01:50:48;;;;;;;10.45;3.40;;;2.80;99.90;;;;;;4987849;28;20110;-79
2021/03/15 01:53:16;;;;;;;7.13;3.42;;;2.80;99.90;;;;;;4995753;28;20046;-78
2021/03/15 01:55:43;;;;;;;11.20;3.33;;;2.80;99.90;;;;;;4993829;28;20062;-79
2021/03/15 01:58:08;;;;;;;6.57;3.20;;;2.80;99.90;;;;;;4991046;28;20039;-79
2021/03/15 02:00:34;;;;;;;7.70;3.13;;;2.70;99.90;;;;;;4989380;28;20042;-78
2021/03/15 02:03:07;;;;;;;8.57;3.45;;;2.70;99.90;;;;;;4987541;28;20047;-77
2021/03/15 02:05:37;;;;;;;8.55;3.33;;;2.60;99.90;;;;;;4983462;28;20042;-77
2021/03/15 02:08:05;;;;;;;6.95;3.45;;;2.50;99.90;;;;;;4980330;28;20039;-77
2021/03/15 02:10:31;;;;;;;7.50;3.17;;;2.50;99.90;;;;;;4982493;28;20511;-77
2021/03/15 02:13:15;;;;;;;10.82;4.30;;;2.50;99.90;;;;;;4981445;28;20046;-78
2021/03/15 02:15:50;;;;;;;11.85;3.88;;;2.50;99.90;;;;;;4982276;28;20146;-79
2021/03/15 02:18:38;;;;;;;13.48;3.90;;;2.50;99.90;;;;;;4990325;28;20046;-78
2021/03/15 02:21:13;;;;;;;10.70;3.60;;;2.50;99.90;;;;;;4982342;28;20065;-78
2021/03/15 02:24:06;;;;;;;9.40;3.80;;;2.40;99.90;;;;;;4993149;28;20291;-78
2021/03/15 02:27:09;;;;;;;11.02;4.20;;;2.30;99.90;;;;;;4984927;28;20026;-78
2021/03/15 02:29:56;;;;;;;11.43;3.92;;;2.30;99.90;;;;;;4988830;28;20054;-78
2021/03/15 02:32:46;;;;;;;9.32;3.55;;;2.30;99.90;;;;;;4987024;28;20053;-77
2021/03/15 02:35:23;;;;;;;11.25;3.92;;;2.20;99.90;;;;;;4977888;28;20046;-76
2021/03/15 02:37:57;;;;;;;12.07;4.25;;;2.20;99.90;;;;;;4983164;28;20110;-75
2021/03/15 02:40:29;;;;;;;10.93;4.45;;;2.10;99.90;;;;;;4979845;28;20558;-76
2021/03/15 02:42:59;;;;;;;20.02;4.03;;;2.10;99.90;;;;;;4978516;28;20527;-76
2021/03/15 02:45:34;;;;;;;9.10;3.80;;;2.10;99.90;;;;;;4981060;28;20043;-77
2021/03/15 02:48:03;;;;;;;7.82;3.75;;;2.10;99.90;;;;;;4980366;28;20082;-76
2021/03/15 02:50:41;;;;;;;15.02;4.18;;;2.10;99.90;;;;;;4980403;28;20042;-76
2021/03/15 02:53:14;;;;;;;14.88;4.53;;;2.10;99.90;;;;;;4982582;28;20109;-77
2021/03/15 02:55:42;;;;;;;12.20;3.85;;;2.10;99.90;;;;;;4981619;28;20045;-79
2021/03/15 02:58:09;;;;;;;8.68;4.38;;;2.10;99.90;;;;;;4982203;28;20043;-77
2021/03/15 03:00:37;;;;;;;14.48;4.20;;;2.10;99.90;;;;;;4983640;28;20043;-78
2021/03/15 03:03:04;;;;;;;12.95;4.47;;;2.10;99.90;;;;;;4983137;28;20526;-76
2021/03/15 03:05:34;;;;;;;19.95;4.82;;;2.10;99.90;;;;;;4978027;28;20042;-77
2021/03/15 03:08:01;;;;;;;6.60;4.15;;;2.10;99.90;;;;;;4980609;28;20046;-77
2021/03/15 03:10:32;;;;;;;14.02;4.40;;;2.10;99.90;;;;;;4981561;28;20039;-77
2021/03/15 03:12:58;;;;;;;11.23;4.75;;;2.10;99.90;;;;;;4978637;28;20057;-79
2021/03/15 03:15:29;;;;;;;14.63;3.95;;;2.10;99.90;;;;;;4988086;28;20125;-78
2021/03/15 03:17:58;;;;;;;10.05;4.13;;;2.10;99.90;;;;;;4990492;28;20041;-79
2021/03/15 03:20:28;;;;;;;9.40;3.97;;;2.10;99.90;;;;;;4985754;28;20705;-78
2021/03/15 03:22:58;;;;;;;20.98;4.00;;;2.10;99.90;;;;;;4989937;28;20157;-76
2021/03/15 03:25:25;;;;;;;16.00;4.30;;;2.10;99.90;;;;;;4984992;28;20073;-78
2021/03/15 03:27:54;;;;;;;11.45;4.15;;;2.10;99.90;;;;;;4985597;28;20109;-77
2021/03/15 03:30:28;;;;;;;11.18;4.20;;;2.10;99.90;;;;;;4966759;28;20079;-77
2021/03/15 03:32:55;;;;;;;18.83;4.37;;;2.30;99.90;;;;;;4989710;28;20053;-77
2021/03/15 03:35:22;;;;;;;21.58;4.57;;;2.30;99.90;;;;;;4979999;28;20139;-78
2021/03/15 03:37:48;;;;;;;18.50;4.53;;;2.40;99.90;;;;;;4977414;28;20411;-77
2021/03/15 03:40:15;;;;;;;22.02;5.00;;;2.40;99.90;;;;;;4985595;28;20051;-78
2021/03/15 03:42:41;;;;;;;16.75;4.38;;;2.40;99.90;;;;;;4983028;28;20049;-77
2021/03/15 03:45:14;;;;;;;17.77;4.05;;;2.50;99.90;;;;;;4989804;28;20046;-77
2021/03/15 03:47:41;;;;;;;14.27;4.03;;;2.50;99.90;;;;;;4982615;28;20367;-79
2021/03/15 03:50:11;;;;;;;22.52;3.60;;;2.70;99.90;;;;;;4981749;28;20038;-78
2021/03/15 03:52:43;;;;;;;16.70;3.97;;;2.70;99.90;;;;;;4981726;28;20035;-78
2021/03/15 03:55:15;;;;;;;15.60;4.38;;;2.80;99.90;;;;;;4987956;28;20035;-78
2021/03/15 03:57:43;;;;;;;14.70;4.45;;;2.90;99.90;;;;;;4981094;28;20034;-78
2021/03/15 04:00:14;;;;;;;8.93;4.18;;;3.20;99.90;;;;;;4986210;28;20600;-78
2021/03/15 04:02:54;;;;;;;8.10;3.83;;;3.30;99.90;;;;;;4979342;28;20047;-77
2021/03/15 04:05:29;;;;;;;6.47;3.88;;;3.40;99.90;;;;;;4977985;28;20054;-78
2021/03/15 04:08:02;;;;;;;11.38;3.15;;;3.40;99.90;;;;;;4982316;28;20095;-78
2021/03/15 04:10:30;;;;;;;8.73;3.67;;;3.50;99.90;;;;;;4980524;28;20039;-77
2021/03/15 04:13:03;;;;;;;10.10;3.28;;;3.50;99.90;;;;;;4976245;28;20138;-79
2021/03/15 04:15:29;;;;;;;12.10;3.58;;;3.60;99.90;;;;;;4973885;28;20060;-77
2021/03/15 04:17:56;;;;;;;5.78;2.90;;;3.60;99.90;;;;;;4969067;28;20106;-76
2021/03/15 04:20:27;;;;;;;13.70;2.40;;;3.60;99.90;;;;;;4972439;28;20035;-78
2021/03/15 04:22:56;;;;;;;9.30;2.90;;;3.70;99.90;;;;;;4966105;28;20042;-77
2021/03/15 04:25:26;;;;;;;6.75;3.25;;;3.70;99.90;;;;;;4970286;28;20039;-76
2021/03/15 04:27:52;;;;;;;6.63;2.60;;;3.70;99.90;;;;;;4970134;28;20073;-77
2021/03/15 04:30:22;;;;;;;6.40;2.58;;;3.70;99.90;;;;;;4970037;28;20039;-77
2021/03/15 04:32:53;;;;;;;8.40;3.15;;;3.70;99.90;;;;;;4969983;28;20532;-77
2021/03/15 04:35:32;;;;;;;6.70;2.63;;;3.70;99.90;;;;;;4968496;28;20042;-78
2021/03/15 04:38:00;;;;;;;8.98;2.67;;;3.70;99.90;;;;;;4972886;28;20051;-77
2021/03/15 04:40:28;;;;;;;7.80;3.20;;;3.70;99.90;;;;;;4986258;28;20070;-78
2021/03/15 04:43:02;;;;;;;8.73;2.58;;;3.70;99.90;;;;;;4970253;28;20057;-77
2021/03/15 04:45:30;;;;;;;10.75;3.17;;;3.70;99.90;;;;;;4969663;28;20639;-77
2021/03/15 04:47:59;;;;;;;8.23;2.88;;;3.70;99.90;;;;;;4960463;28;20050;-77
2021/03/15 04:50:25;;;;;;;8.63;3.10;;;3.60;99.90;;;;;;4961866;28;20043;-77
2021/03/15 04:52:52;;;;;;;6.45;2.90;;;3.70;99.90;;;;;;4980931;28;20041;-76
2021/03/15 04:55:18;;;;;;;8.88;3.10;;;3.70;99.90;;;;;;4975641;28;20510;-78
2021/03/15 04:57:48;;;;;;;8.18;3.08;;;3.70;99.90;;;;;;4979246;28;20046;-77
2021/03/15 05:00:15;;;;;;;9.63;4.10;;;3.70;99.90;;;;;;4979412;28;20050;-78
2021/03/15 05:03:07;;;;;;;5.03;2.70;;;3.80;99.90;;;;;;4978923;28;20051;-77
2021/03/15 05:05:35;;;;;;;13.05;3.13;;;3.80;99.90;;;;;;4966213;28;20039;-77
2021/03/15 05:08:04;;;;;;;11.57;2.35;;;3.80;99.90;;;;;;4982884;28;20037;-78
2021/03/15 05:10:31;;;;;;;9.45;2.75;;;3.80;99.90;;;;;;4972232;28;20079;-77
2021/03/15 05:13:03;;;;;;;9.55;3.28;;;3.80;99.90;;;;;;4979751;28;20050;-77
2021/03/15 05:15:29;;;;;;;6.20;3.78;;;3.80;99.90;;;;;;4973010;28;20111;-77
2021/03/15 05:17:56;;;;;;;10.70;3.60;;;3.80;99.90;;;;;;4976247;28;20046;-78
2021/03/15 05:20:23;;;;;;;8.90;3.00;;;3.90;99.90;;;;;;4963754;28;20103;-76
2021/03/15 05:22:50;;;;;;;12.27;3.28;;;3.80;99.90;;;;;;4977751;28;20420;-78
2021/03/15 05:25:19;;;;;;;7.63;3.28;;;3.80;99.90;;;;;;4976796;28;20042;-77
2021/03/15 05:27:46;;;;;;;6.57;3.08;;;3.80;99.90;;;;;;4978625;28;20039;-77
2021/03/15 05:30:18;;;;;;;7.28;3.25;;;3.80;99.90;;;;;;4976454;28;20047;-77
2021/03/15 05:32:49;;;;;;;9.73;3.30;;;3.80;99.90;;;;;;4975679;28;20444;-77
2021/03/15 05:35:15;;;;;;;11.23;4.22;;;3.80;99.90;;;;;;4979536;28;20038;-77
2021/03/15 05:37:41;;;;;;;10.90;3.08;;;3.90;99.90;;;;;;4978453;28;20145;-78
2021/03/15 05:40:11;;;;;;;14.55;3.35;;;3.70;99.90;;;;;;4978301;28;20084;-76
2021/03/15 05:42:48;;;;;;;5.85;3.10;;;3.80;99.90;;;;;;4977406;28;20050;-75
2021/03/15 05:45:14;;;;;;;5.70;3.22;;;3.80;99.90;;;;;;4979598;28;20039;-76
2021/03/15 05:48:21;;;;;;;6.30;3.05;;;3.80;99.90;;;;;;4974805;28;20047;-77
2021/03/15 05:51:27;;;;;;;13.27;3.05;;;3.80;99.90;;;;;;4976613;28;20093;-76
2021/03/15 05:54:01;;;;;;;12.00;4.28;;;3.80;99.90;;;;;;4974399;28;20042;-77
2021/03/15 05:57:01;;;;;;;13.02;3.97;;;3.80;99.90;;;;;;4976431;28;20043;-77
2021/03/15 06:00:04;;;;;;;8.10;3.05;;;3.80;99.90;;;;;;4976460;28;20623;-76
2021/03/15 06:02:56;;;;;;;6.55;3.35;;;3.80;99.90;;;;;;4989623;28;20026;-78
2021/03/15 06:05:28;;;;;;;9.60;3.05;;;3.80;99.90;;;;;;4977089;28;20085;-78
2021/03/15 06:08:01;;;;;;;6.07;2.58;;;3.80;99.90;;;;;;4971281;28;20038;-78
2021/03/15 06:10:59;;;;;;;14.73;2.95;;;3.80;99.90;;;;;;4984868;28;20134;-79
2021/03/15 06:13:27;;;;;;;10.20;3.20;;;3.90;99.90;;;;;;4972713;28;20454;-77
2021/03/15 06:15:53;;;;;;;4.90;2.83;;;3.80;99.90;;;;;;4977825;28;20113;-80
2021/03/15 06:18:20;;;;;;;4.97;2.63;;;3.80;99.90;;;;;;4959508;28;20034;-79
2021/03/15 06:20:48;;;;;;;10.90;2.70;;;3.80;99.90;;;;;;4973784;28;20032;-78
2021/03/15 06:23:17;;;;;;;6.15;3.25;;;3.80;99.90;;;;;;4974224;28;20711;-78
2021/03/15 06:25:46;;;;;;;10.98;3.40;;;3.80;99.90;;;;;;4972794;28;20545;-78
2021/03/15 06:28:12;;;;;;;11.27;4.28;;;3.80;99.90;;;;;;4971367;28;20055;-80
2021/03/15 06:30:38;;;;;;;10.10;2.97;;;3.80;99.90;;;;;;4968927;28;20057;-77
2021/03/15 06:33:04;;;;;;;9.80;3.42;;;3.80;99.90;;;;;;4968835;28;20687;-79
2021/03/15 06:35:41;;;;;;;7.10;2.85;;;3.80;99.90;;;;;;4967486;28;20438;-77
2021/03/15 06:38:08;;;;;;;6.97;3.17;;;3.80;99.90;;;;;;4969111;28;20558;-78
2021/03/15 06:40:35;;;;;;;11.02;3.40;;;3.80;99.90;;;;;;4963810;28;20050;-79
2021/03/15 06:43:05;;;;;;;7.10;3.40;;;3.80;99.90;;;;;;4971773;28;20062;-79
2021/03/15 06:45:31;;;;;;;7.53;3.67;;;3.80;99.90;;;;;;4970910;28;20115;-78
2021/03/15 06:47:58;;;;;;;12.43;3.85;;;3.80;99.90;;;;;;4972487;28;20030;-80
2021/03/15 06:50:24;;;;;;;10.40;2.65;;;4.00;99.90;;;;;;4975335;28;20122;-79
2021/03/15 06:52:52;;;;;;;6.60;2.95;;;4.00;99.90;;;;;;4968389;28;20038;-79
2021/03/15 06:55:21;;;;;;;8.30;2.53;;;4.00;99.90;;;;;;4969552;28;20468;-79
2021/03/15 06:57:49;;;;;;;3.80;2.60;;;4.10;99.90;;;;;;4954915;28;20098;-79
2021/03/15 07:00:23;;;;;;;8.85;2.95;;;4.10;99.90;;;;;;4966743;28;20046;-78
2021/03/15 07:02:57;;;;;;;7.20;2.00;;;4.20;99.90;;;;;;4965504;28;20050;-78
2021/03/15 07:05:23;;;;;;;6.15;2.28;;;4.20;99.90;;;;;;4965722;28;20039;-79
2021/03/15 07:07:52;;;;;;;6.43;2.42;;;4.30;99.90;;;;;;4969047;28;20041;-79
2021/03/15 07:10:20;;;;;;;3.20;1.90;;;4.30;99.90;;;;;;4966627;28;20050;-79
2021/03/15 07:12:46;;;;;;;7.72;2.05;;;4.40;99.90;;;;;;4963707;28;20038;-79
2021/03/15 07:15:13;;;;;;;3.65;1.95;;;4.40;99.90;;;;;;4966846;28;20499;-79
2021/03/15 07:17:39;;;;;;;4.38;2.03;;;4.40;99.90;;;;;;4970232;28;20119;-80
2021/03/15 07:20:07;;;;;;;2.65;1.65;;;4.50;99.90;;;;;;4966557;28;20047;-78
2021/03/15 07:22:32;;;;;;;4.43;2.08;;;4.60;99.90;;;;;;4968768;28;20673;-79
2021/03/15 07:25:12;;;;;;;3.17;1.92;;;4.60;99.90;;;;;;4969363;28;20050;-79
2021/03/15 07:27:41;;;;;;;3.58;1.85;;;4.60;99.90;;;;;;4967148;28;20058;-79
2021/03/15 07:30:42;;;;;;;3.20;1.83;;;4.60;99.90;;;;;;4967222;28;20483;-80
2021/03/15 07:33:20;;;;;;;4.32;1.83;;;4.50;99.90;;;;;;4989591;28;20038;-79
2021/03/15 07:35:47;;;;;;;10.35;1.58;;;4.50;99.90;;;;;;4996150;28;20050;-78
2021/03/15 07:38:13;;;;;;;4.78;1.10;;;4.30;99.90;;;;;;4999817;28;20102;-77
2021/03/15 07:40:46;;;;;;;2.10;1.00;;;4.10;99.90;;;;;;5000993;28;20042;-78
2021/03/15 07:43:14;;;;;;;2.72;1.05;;;3.90;99.90;;;;;;4993205;28;20031;-80
2021/03/15 07:45:43;;;;;;;3.00;1.38;;;3.80;99.90;;;;;;4986014;28;20041;-79
2021/03/15 07:48:10;;;;;;;3.38;1.15;;;3.80;99.90;;;;;;4978499;28;20039;-77
2021/03/15 07:50:37;;;;;;;1.95;1.13;;;3.70;99.90;;;;;;4975828;28;20047;-79
2021/03/15 07:53:04;;;;;;;2.25;1.27;;;3.70;99.90;;;;;;4985588;28;20035;-79
2021/03/15 07:55:35;;;;;;;2.13;1.27;;;3.80;99.90;;;;;;4988026;28;20098;-80
2021/03/15 07:58:01;;;;;;;4.72;1.10;;;3.80;99.90;;;;;;4987207;28;20038;-78
2021/03/15 08:00:26;;;;;;;5.50;1.80;;;3.80;99.90;;;;;;4986094;28;20089;-79
2021/03/15 08:02:58;;;;;;;3.53;1.70;;;4.00;99.90;;;;;;4989139;28;20224;-80
2021/03/15 08:05:24;;;;;;;4.97;1.63;;;4.00;99.90;;;;;;4989261;28;20085;-81
2021/03/15 08:07:50;;;;;;;4.05;1.30;;;4.10;99.90;;;;;;4989799;28;20097;-81
2021/03/15 08:10:15;;;;;;;3.97;1.80;;;4.10;99.90;;;;;;4984234;28;20046;-78
2021/03/15 08:12:44;;;;;;;1.95;1.13;;;4.10;99.90;;;;;;4979626;28;20051;-82
2021/03/15 08:15:12;;;;;;;2.75;1.35;;;4.30;99.90;;;;;;4985636;28;20039;-81
2021/03/15 08:17:45;;;;;;;2.03;1.20;;;4.50;99.90;;;;;;4981858;28;20102;-81
2021/03/15 08:20:12;;;;;;;5.47;1.38;;;4.60;99.90;;;;;;4983654;28;20068;-78
2021/03/15 08:22:41;;;;;;;2.22;1.17;;;4.60;99.90;;;;;;4980462;28;20103;-79
2021/03/15 08:25:08;;;;;;;5.10;1.20;;;4.80;99.90;;;;;;4995840;28;20035;-83
2021/03/15 08:27:40;;;;;;;4.32;1.55;;;5.00;99.90;;;;;;4991615;28;20069;-82
2021/03/15 08:30:15;;;;;;;1.92;1.25;;;5.10;99.90;;;;;;4988666;28;20038;-80
2021/03/15 08:32:42;;;;;;;2.20;1.10;;;5.30;99.90;;;;;;4993323;28;20039;-83
2021/03/15 08:35:09;;;;;;;2.08;1.13;;;5.30;99.90;;;;;;4990442;28;20046;-82
2021/03/15 08:37:56;;;;;;;1.50;0.90;;;5.30;99.90;;;;;;4984015;28;20049;-78
2021/03/15 08:40:40;;;;;;;7.57;1.25;;;5.50;99.90;;;;;;4984222;28;20119;-79
2021/03/15 08:43:25;;;;;;;1.00;0.90;;;5.40;99.90;;;;;;4978070;28;20042;-80
2021/03/15 08:45:55;;;;;;;;;;;5.30;99.90;;;;;;4983450;28;20039;-78
2021/03/15 08:48:40;;;;;;;2.83;1.20;;;5.20;99.90;;;;;;4975751;28;19974;-79
2021/03/15 08:51:14;;;;;;;1.55;0.93;;;5.10;99.90;;;;;;4985743;28;20118;-79
2021/03/15 08:53:40;;;;;;;2.53;1.50;;;5.10;99.90;;;;;;4982381;28;20039;-79
2021/03/15 08:56:32;;;;;;;2.08;1.08;;;5.00;99.90;;;;;;4982694;28;20049;-80
2021/03/15 08:59:00;;;;;;;3.72;0.90;;;5.10;99.90;;;;;;4986229;28;20035;-79
2021/03/15 09:01:50;;;;;;;2.22;1.10;;;5.10;99.90;;;;;;4979687;28;20068;-79
2021/03/15 09:04:32;;;;;;;3.30;0.88;;;5.20;99.90;;;;;;4978366;28;20595;-80
2021/03/15 09:06:58;;;;;;;2.45;0.90;;;5.10;99.90;;;;;;4978261;28;20046;-79
2021/03/15 09:09:25;;;;;;;2.03;1.08;;;5.20;99.90;;;;;;4974680;28;20042;-81
2021/03/15 09:11:52;;;;;;;2.10;0.80;;;5.10;99.90;;;;;;4977192;28;20049;-80
2021/03/15 09:14:32;;;;;;;2.65;0.65;;;5.10;99.90;;;;;;4976003;28;20070;-80
2021/03/15 09:17:02;;;;;;;0.82;0.60;;;5.30;99.90;;;;;;4985003;28;20065;-79
2021/03/15 09:19:30;;;;;;;2.45;0.88;;;5.20;99.90;;;;;;4989505;28;20046;-79
2021/03/15 09:22:15;;;;;;;1.73;0.80;;;5.30;99.90;;;;;;4993628;28;20038;-80
2021/03/15 09:24:51;;;;;;;2.08;0.68;;;5.30;99.90;;;;;;4987119;28;20380;-81
2021/03/15 09:27:36;;;;;;;1.88;0.95;;;5.30;99.90;;;;;;4993024;28;20157;-79
2021/03/15 09:30:11;;;;;;;6.00;0.60;;;5.30;99.90;;;;;;4986919;28;20034;-79
2021/03/15 09:32:57;;;;;;;0.80;0.43;;;5.30;99.90;;;;;;4981853;28;20039;-79
2021/03/15 09:35:25;;;;;;;1.45;0.75;;;5.40;99.90;;;;;;4986952;28;20077;-78
2021/03/15 09:38:06;;;;;;;3.13;1.02;;;5.50;99.90;;;;;;4984716;28;20038;-79
2021/03/15 09:40:38;;;;;;;5.68;0.77;;;5.40;99.90;;;;;;4984112;28;20050;-79
2021/03/15 09:43:04;;;;;;;2.05;0.77;;;5.50;99.90;;;;;;4985384;28;20038;-80
2021/03/15 09:45:34;;;;;;;1.42;0.68;;;5.60;99.90;;;;;;4984304;28;20035;-80
2021/03/15 09:48:00;;;;;;;1.92;0.75;;;5.60;99.90;;;;;;4981837;28;20299;-81
2021/03/15 09:50:28;;;;;;;1.48;0.85;;;5.70;99.90;;;;;;4977375;28;20042;-81
2021/03/15 09:53:14;;;;;;;4.47;0.90;;;5.70;99.90;;;;;;4977539;28;20054;-85
2021/03/15 09:55:40;;;;;;;1.63;0.95;;;5.80;99.90;;;;;;4973514;28;20082;-80
2021/03/15 09:58:10;;;;;;;8.60;1.63;;;5.70;99.90;;;;;;4970628;28;20031;-79
2021/03/15 10:00:37;;;;;;;2.35;1.25;;;5.80;99.90;;;;;;4977279;28;20034;-81
2021/03/15 10:03:03;;;;;;;1.85;1.15;;;5.80;99.90;;;;;;4975971;28;20318;-80
2021/03/15 10:05:29;;;;;;;2.53;1.30;;;6.00;99.90;;;;;;4977067;28;20031;-81
2021/03/15 10:07:55;;;;;;;4.13;1.30;;;6.00;99.90;;;;;;4976110;28;20054;-80
2021/03/15 10:10:23;;;;;;;2.97;1.40;;;6.00;99.90;;;;;;4977173;28;20081;-80
2021/03/15 10:12:50;;;;;;;2.25;1.45;;;6.10;99.90;;;;;;4980309;28;20047;-82
2021/03/15 10:15:19;;;;;;;3.15;1.50;;;6.40;99.90;;;;;;4977462;28;20175;-79
2021/03/15 10:17:47;;;;;;;3.67;1.77;;;6.30;99.90;;;;;;4982916;28;20074;-78
2021/03/15 10:20:42;;;;;;;2.72;1.60;;;6.30;99.90;;;;;;4975750;28;20038;-79
2021/03/15 10:23:15;;;;;;;2.80;1.27;;;6.30;99.90;;;;;;4973710;28;20055;-79
2021/03/15 10:25:56;;;;;;;2.60;1.73;;;6.30;99.90;;;;;;4975637;28;20103;-80
2021/03/15 10:28:23;;;;;;;2.72;1.80;;;6.20;99.90;;;;;;4971912;28;20028;-79
2021/03/15 10:30:50;;;;;;;3.40;1.80;;;6.10;99.90;;;;;;4969701;28;20059;-80
2021/03/15 10:33:19;;;;;;;2.70;1.52;;;6.20;99.90;;;;;;4971342;28;20037;-79
2021/03/15 10:35:45;;;;;;;2.08;1.33;;;6.10;99.90;;;;;;4971171;28;20053;-80
2021/03/15 10:38:13;;;;;;;2.35;1.65;;;6.20;99.90;;;;;;4971362;28;20361;-80
2021/03/15 10:40:40;;;;;;;2.58;1.67;;;6.30;99.90;;;;;;4971004;28;20078;-79
2021/03/15 10:43:06;;;;;;;3.70;2.00;;;6.30;99.90;;;;;;4973065;28;20188;-80
2021/03/15 10:45:32;;;;;;;3.03;1.83;;;6.20;99.90;;;;;;4971858;28;20042;-78
2021/03/15 10:48:03;;;;;;;4.25;2.00;;;6.40;99.90;;;;;;4966914;28;20042;-79
2021/03/15 10:50:32;;;;;;;2.42;1.52;;;6.40;99.90;;;;;;4967947;28;20059;-81
2021/03/15 10:53:22;;;;;;;2.85;1.95;;;6.60;99.90;;;;;;4969641;28;20090;-78
2021/03/15 10:55:48;;;;;;;4.95;1.55;;;6.80;99.90;;;;;;4971287;28;20035;-80
2021/03/15 10:58:18;;;;;;;2.90;1.50;;;7.00;99.90;;;;;;4968666;28;20043;-81
2021/03/15 11:00:51;;;;;;;2.58;1.55;;;7.70;99.90;;;;;;4958652;28;20074;-79
2021/03/15 11:03:26;;;;;;;2.20;1.30;;;8.20;99.90;;;;;;4954404;28;20067;-78
2021/03/15 11:06:15;;;;;;;;;;;8.20;99.90;;;;;;4956016;28;20305;-78
2021/03/15 11:08:41;;;;;;;1.98;1.13;;;7.70;99.90;;;;;;4952456;28;19925;-79
2021/03/15 11:11:17;;;;;;;2.42;1.77;;;7.40;99.90;;;;;;4964346;28;20930;-78
2021/03/15 11:13:47;;;;;;;3.85;1.60;;;7.20;99.90;;;;;;4952624;28;20036;-78
2021/03/15 11:16:23;;;;;;;2.05;1.50;;;7.30;99.90;;;;;;4951619;28;20046;-78
2021/03/15 11:19:06;;;;;;;1.92;1.40;;;7.20;99.90;;;;;;4951279;28;20066;-78
2021/03/15 11:21:39;;;;;;;1.88;1.17;;;7.30;99.90;;;;;;4963558;28;20059;-78
2021/03/15 11:24:06;;;;;;;5.00;1.50;;;7.20;99.90;;;;;;4952466;28;20039;-79
2021/03/15 11:26:45;;;;;;;1.83;1.30;;;7.50;99.90;;;;;;4960083;28;20039;-77
2021/03/15 11:29:12;;;;;;;17.83;3.58;;;7.50;99.90;;;;;;4957565;28;20362;-78
2021/03/15 11:31:47;;;;;;;9.02;2.17;;;7.70;99.90;;;;;;4963323;28;20035;-77
2021/03/15 11:34:20;;;;;;;15.18;2.85;;;7.50;99.90;;;;;;4962294;28;20624;-78
2021/03/15 11:36:47;;;;;;;4.47;2.15;;;7.50;99.90;;;;;;4964437;28;20098;-78
2021/03/15 11:39:13;;;;;;;4.70;1.38;;;7.40;99.90;;;;;;4956161;28;20132;-78
2021/03/15 11:41:41;;;;;;;3.95;1.40;;;7.70;99.90;;;;;;4957528;28;20035;-78
2021/03/15 11:44:07;;;;;;;2.50;1.10;;;7.40;99.90;;;;;;4953048;28;20600;-79
2021/03/15 11:46:32;;;;;;;3.00;1.98;;;7.30;99.90;;;;;;4956859;28;20039;-80
2021/03/15 11:48:58;;;;;;;3.70;1.52;;;7.20;99.90;;;;;;4963539;28;20035;-79
2021/03/15 11:51:24;;;;;;;2.08;1.30;;;7.40;99.90;;;;;;4953200;28;20050;-79
2021/03/15 11:53:49;;;;;;;2.90;1.38;;;7.20;99.90;;;;;;4952788;28;20039;-78
2021/03/15 11:56:16;;;;;;;2.58;1.73;;;7.10;99.90;;;;;;4956512;28;20755;-78
2021/03/15 11:58:42;;;;;;;4.22;1.45;;;7.10;99.90;;;;;;4960066;28;20069;-79
2021/03/15 12:01:09;;;;;;;2.63;1.60;;;6.80;99.90;;;;;;4951518;28;20062;-79
2021/03/15 12:03:35;;;;;;;3.00;1.75;;;6.80;99.90;;;;;;4955130;28;20042;-77
2021/03/15 12:06:01;;;;;;;5.28;1.77;;;6.90;99.90;;;;;;4955469;28;20031;-77
2021/03/15 12:08:27;;;;;;;2.85;1.83;;;6.90;99.90;;;;;;4955710;28;20101;-78
2021/03/15 12:10:53;;;;;;;2.63;1.75;;;7.00;99.90;;;;;;4955334;28;20209;-78
2021/03/15 12:13:19;;;;;;;4.63;1.60;;;7.00;99.90;;;;;;4962317;28;20066;-77
2021/03/15 12:15:45;;;;;;;2.40;1.50;;;7.10;99.90;;;;;;4950111;28;20043;-79
2021/03/15 12:18:11;;;;;;;3.78;1.60;;;7.10;99.90;;;;;;4962082;28;20035;-77
2021/03/15 12:20:38;;;;;;;3.00;1.70;;;7.00;99.90;;;;;;4952769;28;20066;-78
2021/03/15 12:23:04;;;;;;;2.22;1.65;;;6.90;99.90;;;;;;4947864;28;20035;-77
2021/03/15 12:25:32;;;;;;;2.85;1.83;;;6.80;99.90;;;;;;4958355;28;20062;-77
2021/03/15 12:27:57;;;;;;;3.92;2.97;;;6.70;99.90;;;;;;4952658;28;20035;-77
2021/03/15 12:30:23;;;;;;;4.80;2.08;;;6.80;99.90;;;;;;4962250;28;20448;-78
2021/03/15 12:32:52;;;;;;;3.20;1.88;;;7.00;99.90;;;;;;4951531;28;20047;-79
2021/03/15 12:35:17;;;;;;;3.13;1.80;;;6.80;99.90;;;;;;4955378;28;20063;-78
2021/03/15 12:37:44;;;;;;;3.85;1.70;;;7.00;99.90;;;;;;4962274;28;20331;-79
2021/03/15 12:40:10;;;;;;;3.05;1.80;;;7.20;99.90;;;;;;4950691;28;20428;-78
2021/03/15 12:42:36;;;;;;;4.47;1.98;;;7.10;99.90;;;;;;4950236;28;20046;-78
2021/03/15 12:45:06;;;;;;;3.50;1.75;;;7.20;99.90;;;;;;4949570;28;20054;-81
2021/03/15 12:47:31;;;;;;;3.38;2.33;;;7.50;99.90;;;;;;4956738;28;20039;-78
2021/03/15 12:49:57;;;;;;;3.30;2.15;;;7.60;99.90;;;;;;4955832;28;20233;-80
2021/03/15 12:52:22;;;;;;;2.50;1.83;;;7.90;99.50;;;;;;4955794;28;20074;-80
2021/03/15 12:54:48;;;;;;;6.88;2.38;;;8.20;96.80;;;;;;4957863;28;20039;-79
2021/03/15 12:57:14;;;;;;;3.88;2.08;;;8.50;95.70;;;;;;4961200;28;20044;-80
2021/03/15 12:59:39;;;;;;;3.38;2.13;;;8.50;92.20;;;;;;4971550;28;20047;-80
2021/03/15 13:02:06;;;;;;;5.07;1.98;;;8.70;92.20;;;;;;4966068;28;20131;-78
2021/03/15 13:04:32;;;;;;;6.13;1.90;;;8.60;90.30;;;;;;4969178;28;20062;-80
2021/03/15 13:06:57;;;;;;;4.18;1.58;;;8.50;82.90;;;;;;4958585;28;20512;-80
2021/03/15 13:09:23;;;;;;;2.42;1.52;;;8.70;84.90;;;;;;4962599;28;20043;-78
2021/03/15 13:11:49;;;;;;;4.30;1.60;;;8.70;85.00;;;;;;4966578;28;20062;-78